createdAt,value
2023-02-26T00:01:43.072Z,98564.06
2023-02-26T00:04:11.149Z,98558.16
2023-02-26T00:06:53.781Z,98551.97
2023-02-26T00:09:25.027Z,98562.34
2023-02-26T00:11:53.250Z,98560.63
2023-02-26T00:14:21.323Z,98548.50
2023-02-26T00:16:58.392Z,98550.88
2023-02-26T00:19:26.182Z,98552.19
2023-02-26T00:21:54.012Z,98561.63
2023-02-26T00:24:21.549Z,98557.31
2023-02-26T00:26:49.041Z,98561.81
2023-02-26T00:29:16.956Z,98564.06
2023-02-26T00:31:44.966Z,98561.91
2023-02-26T00:34:14.391Z,98559.16
2023-02-26T00:37:07.151Z,98563.81
2023-02-26T00:40:23.334Z,98558.22
2023-02-26T00:42:51.153Z,98548.66
2023-02-26T00:45:19.463Z,98555.19
2023-02-26T00:47:55.528Z,98546.66
2023-02-26T00:50:26.763Z,98543.94
2023-02-26T00:53:22.428Z,98540.72
2023-02-26T00:55:49.896Z,98530.53
2023-02-26T00:58:17.337Z,98533.09
2023-02-26T01:00:47.408Z,98537.16
2023-02-26T01:03:15.306Z,98542.56
2023-02-26T01:05:43.243Z,98551.78
2023-02-26T01:08:24.350Z,98537.56
2023-02-26T01:10:52.269Z,98543.59
2023-02-26T01:13:20.075Z,98551.31
2023-02-26T01:15:56.168Z,98544.44
2023-02-26T01:18:31.966Z,98532.91
2023-02-26T01:21:05.878Z,98535.13
2023-02-26T01:23:40.825Z,98533.63
2023-02-26T01:26:24.616Z,98522.28
2023-02-26T01:28:53.597Z,98529.06
2023-02-26T01:32:01.534Z,98516.78
2023-02-26T01:35:08.739Z,98518.41
2023-02-26T01:38:04.209Z,98528.91
2023-02-26T01:41:04.331Z,98526.44
2023-02-26T01:44:15.733Z,98524.00
2023-02-26T01:46:52.085Z,98534.78
2023-02-26T01:49:21.038Z,98539.63
2023-02-26T01:51:55.562Z,98533.75
2023-02-26T01:54:37.529Z,98526.38
2023-02-26T01:57:12.862Z,98521.81
2023-02-26T01:59:45.371Z,98529.25
2023-02-26T02:02:18.110Z,98533.22
2023-02-26T02:04:47.526Z,98529.81
2023-02-26T02:07:15.617Z,98531.63
2023-02-26T02:09:43.452Z,98532.47
2023-02-26T02:12:26.005Z,98549.34
2023-02-26T02:15:17.382Z,98542.34
2023-02-26T02:18:16.268Z,98539.94
2023-02-26T02:21:28.002Z,98533.94
2023-02-26T02:24:02.816Z,98546.41
2023-02-26T02:26:52.431Z,98549.97
2023-02-26T02:30:04.760Z,98546.22
2023-02-26T02:32:59.907Z,98555.81
2023-02-26T02:35:37.582Z,98561.50
2023-02-26T02:38:25.338Z,98565.75
2023-02-26T02:41:06.348Z,98568.44
2023-02-26T02:43:39.108Z,98573.88
2023-02-26T02:46:15.986Z,98563.88
2023-02-26T02:49:18.501Z,98561.31
2023-02-26T02:51:54.826Z,98559.53
2023-02-26T02:54:54.923Z,98576.13
2023-02-26T02:57:34.850Z,98581.44
2023-02-26T03:00:11.674Z,98569.91
2023-02-26T03:03:19.107Z,98579.19
2023-02-26T03:05:47.028Z,98582.84
2023-02-26T03:08:20.080Z,98577.19
2023-02-26T03:10:48.172Z,98573.94
2023-02-26T03:13:24.021Z,98573.38
2023-02-26T03:16:00.574Z,98573.38
2023-02-26T03:18:52.629Z,98574.22
2023-02-26T03:21:23.026Z,98574.50
2023-02-26T03:24:14.201Z,98564.84
2023-02-26T03:26:58.717Z,98568.50
2023-02-26T03:29:52.472Z,98562.88
2023-02-26T03:32:51.629Z,98551.78
2023-02-26T03:35:45.347Z,98560.72
2023-02-26T03:38:24.959Z,98557.63
2023-02-26T03:41:18.902Z,98557.75
2023-02-26T03:44:14.508Z,98557.75
2023-02-26T03:46:58.967Z,98554.63
2023-02-26T03:49:33.851Z,98544.38
2023-02-26T03:52:04.871Z,98562.16
2023-02-26T03:54:57.894Z,98564.19
2023-02-26T03:57:46.163Z,98554.00
2023-02-26T04:00:42.760Z,98554.53
2023-02-26T04:03:13.788Z,98550.91
2023-02-26T04:05:48.043Z,98548.94
2023-02-26T04:08:15.907Z,98545.41
2023-02-26T04:10:53.530Z,98557.28
2023-02-26T04:13:21.464Z,98544.72
2023-02-26T04:15:49.628Z,98546.34
2023-02-26T04:18:17.358Z,98551.03
2023-02-26T04:20:45.163Z,98545.03
2023-02-26T04:23:12.759Z,98550.19
2023-02-26T04:25:41.002Z,98561.47
2023-02-26T04:28:09.182Z,98544.63
2023-02-26T04:30:36.826Z,98539.91
2023-02-26T04:33:06.514Z,98537.69
2023-02-26T04:35:34.452Z,98539.44
2023-02-26T04:38:01.902Z,98534.59
2023-02-26T04:40:30.067Z,98535.06
2023-02-26T04:42:57.950Z,98536.00
2023-02-26T04:45:29.383Z,98531.59
2023-02-26T04:47:56.978Z,98530.09
2023-02-26T04:50:27.247Z,98524.47
2023-02-26T04:52:55.073Z,98523.09
2023-02-26T04:55:22.658Z,98517.78
2023-02-26T04:57:50.190Z,98528.25
2023-02-26T05:00:22.720Z,98534.22
2023-02-26T05:02:50.215Z,98534.22
2023-02-26T05:05:17.908Z,98529.13
2023-02-26T05:07:45.513Z,98527.88
2023-02-26T05:10:15.443Z,98532.88
2023-02-26T05:12:42.928Z,98532.78
2023-02-26T05:15:11.015Z,98536.78
2023-02-26T05:17:39.087Z,98528.72
2023-02-26T05:20:10.198Z,98534.75
2023-02-26T05:22:39.607Z,98535.25
2023-02-26T05:25:09.277Z,98527.34
2023-02-26T05:27:36.773Z,98528.31
2023-02-26T05:30:05.347Z,98528.97
2023-02-26T05:32:34.976Z,98533.16
2023-02-26T05:35:02.504Z,98536.38
2023-02-26T05:37:30.145Z,98540.31
2023-02-26T05:39:57.628Z,98532.31
2023-02-26T05:42:25.385Z,98533.66
2023-02-26T05:44:53.719Z,98535.97
2023-02-26T05:47:21.293Z,98528.00
2023-02-26T05:49:48.821Z,98533.28
2023-02-26T05:52:16.634Z,98534.50
2023-02-26T05:54:45.511Z,98538.50
2023-02-26T05:57:13.544Z,98562.09
2023-02-26T05:59:41.146Z,98552.53
2023-02-26T06:02:08.681Z,98559.63
2023-02-26T06:04:36.538Z,98557.50
2023-02-26T06:07:04.647Z,98557.84
2023-02-26T06:09:32.102Z,98564.69
2023-02-26T06:11:59.644Z,98562.56
2023-02-26T06:14:27.226Z,98565.06
2023-02-26T06:16:55.576Z,98566.44
2023-02-26T06:19:23.081Z,98569.59
2023-02-26T06:21:50.677Z,98570.09
2023-02-26T06:24:18.155Z,98568.59
2023-02-26T06:26:45.713Z,98573.50
2023-02-26T06:29:13.203Z,98558.84
2023-02-26T06:31:40.659Z,98565.78
2023-02-26T06:34:08.158Z,98580.56
2023-02-26T06:36:35.591Z,98580.75
2023-02-26T06:39:04.047Z,98576.88
2023-02-26T06:41:31.574Z,98585.88
2023-02-26T06:43:59.082Z,98580.59
2023-02-26T06:46:27.372Z,98566.75
2023-02-26T06:48:55.169Z,98569.88
2023-02-26T06:51:22.656Z,98576.34
2023-02-26T06:53:50.459Z,98567.94
2023-02-26T06:56:17.939Z,98569.13
2023-02-26T06:58:45.449Z,98576.84
2023-02-26T07:01:12.900Z,98575.69
2023-02-26T07:03:40.471Z,98573.91
2023-02-26T07:06:25.954Z,98577.03
2023-02-26T07:08:55.320Z,98584.28
2023-02-26T07:11:22.999Z,98574.00
2023-02-26T07:13:52.050Z,98578.16
2023-02-26T07:16:19.733Z,98582.66
2023-02-26T07:18:47.238Z,98584.88
2023-02-26T07:21:14.741Z,98579.69
2023-02-26T07:23:42.698Z,98578.56
2023-02-26T07:26:14.189Z,98591.44
2023-02-26T07:28:42.176Z,98587.97
2023-02-26T07:31:09.843Z,98597.91
2023-02-26T07:33:38.787Z,98604.03
2023-02-26T07:36:07.116Z,98604.75
2023-02-26T07:38:34.595Z,98601.00
2023-02-26T07:41:02.012Z,98602.53
2023-02-26T07:43:29.499Z,98596.47
2023-02-26T07:45:57.015Z,98585.13
2023-02-26T07:48:24.558Z,98585.50
2023-02-26T07:50:55.550Z,98582.09
2023-02-26T07:53:23.769Z,98577.56
2023-02-26T07:55:51.725Z,98588.16
2023-02-26T07:58:19.474Z,98590.44
2023-02-26T08:00:47.323Z,98585.50
2023-02-26T08:03:15.534Z,98585.84
2023-02-26T08:05:43.201Z,98589.63
2023-02-26T08:08:11.034Z,98569.13
2023-02-26T08:10:41.906Z,98578.19
2023-02-26T08:13:10.129Z,98583.16
2023-02-26T08:15:38.077Z,98587.34
2023-02-26T08:18:05.724Z,98595.69
2023-02-26T08:20:34.055Z,98598.34
2023-02-26T08:23:03.154Z,98596.44
2023-02-26T08:25:33.261Z,98589.97
2023-02-26T08:28:01.782Z,98588.44
2023-02-26T08:30:29.703Z,98583.13
2023-02-26T08:32:57.272Z,98589.25
2023-02-26T08:35:25.289Z,98592.66
2023-02-26T08:37:52.858Z,98593.78
2023-02-26T08:40:20.452Z,98600.22
2023-02-26T08:42:48.873Z,98589.25
2023-02-26T08:45:16.515Z,98594.50
2023-02-26T08:47:56.087Z,98598.66
2023-02-26T08:50:26.648Z,98583.34
2023-02-26T08:52:55.908Z,98586.69
2023-02-26T08:55:24.197Z,98577.38
2023-02-26T08:57:52.325Z,98574.78
2023-02-26T09:00:24.682Z,98579.72
2023-02-26T09:02:52.177Z,98580.16
2023-02-26T09:05:20.150Z,98573.97
2023-02-26T09:07:47.736Z,98574.69
2023-02-26T09:10:17.041Z,98573.81
2023-02-26T09:12:45.493Z,98578.22
2023-02-26T09:15:15.685Z,98569.63
2023-02-26T09:17:44.172Z,98576.66
2023-02-26T09:20:14.291Z,98578.56
2023-02-26T09:22:44.517Z,98583.06
2023-02-26T09:25:12.925Z,98586.69
2023-02-26T09:27:40.536Z,98597.06
2023-02-26T09:30:09.020Z,98589.50
2023-02-26T09:32:36.662Z,98596.72
2023-02-26T09:35:06.337Z,98599.03
2023-02-26T09:37:34.197Z,98603.59
2023-02-26T09:40:03.427Z,98581.94
2023-02-26T09:43:02.147Z,98581.16
2023-02-26T09:45:38.198Z,98582.69
2023-02-26T09:48:08.912Z,98568.53
2023-02-26T09:50:53.985Z,98572.25
2023-02-26T09:53:38.780Z,98558.72
2023-02-26T09:56:16.474Z,98549.28
2023-02-26T09:58:45.436Z,98547.94
2023-02-26T10:01:24.561Z,98550.13
2023-02-26T10:04:07.743Z,98551.06
2023-02-26T10:07:10.446Z,98543.63
2023-02-26T10:10:10.559Z,98552.19
2023-02-26T10:12:43.716Z,98543.94
2023-02-26T10:15:34.128Z,98545.84
2023-02-26T10:18:11.673Z,98547.75
2023-02-26T10:21:01.949Z,98551.41
2023-02-26T10:23:48.780Z,98537.59
2023-02-26T10:26:50.849Z,98540.72
2023-02-26T10:30:10.262Z,98537.84
2023-02-26T10:32:53.638Z,98525.56
2023-02-26T10:35:29.150Z,98528.38
2023-02-26T10:38:05.293Z,98545.97
2023-02-26T10:41:08.659Z,98535.56
2023-02-26T10:43:43.336Z,98519.09
2023-02-26T10:46:17.438Z,98520.03
2023-02-26T10:49:29.784Z,98521.63
2023-02-26T10:52:23.157Z,98527.34
2023-02-26T10:55:27.534Z,98524.03
2023-02-26T10:58:14.337Z,98517.31
2023-02-26T11:00:48.425Z,98518.97
2023-02-26T11:03:40.804Z,98498.72
2023-02-26T11:06:09.243Z,98518.38
2023-02-26T11:08:51.130Z,98505.19
2023-02-26T11:11:40.365Z,98513.06
2023-02-26T11:14:09.433Z,98500.53
2023-02-26T11:16:48.344Z,98517.84
2023-02-26T11:19:19.097Z,98511.50
2023-02-26T11:21:48.342Z,98517.56
2023-02-26T11:24:37.172Z,98502.31
2023-02-26T11:27:14.573Z,98506.19
2023-02-26T11:29:50.170Z,98511.06
2023-02-26T11:32:29.155Z,98495.44
2023-02-26T11:34:58.005Z,98480.91
2023-02-26T11:37:40.114Z,98486.25
2023-02-26T11:40:17.219Z,98503.91
2023-02-26T11:42:56.519Z,98511.88
2023-02-26T11:45:24.854Z,98516.53
2023-02-26T11:48:05.205Z,98513.13
2023-02-26T11:50:50.422Z,98505.94
2023-02-26T11:53:31.587Z,98520.50
2023-02-26T11:56:16.048Z,98514.19
2023-02-26T11:58:47.111Z,98515.69
2023-02-26T12:01:18.655Z,98509.06
2023-02-26T12:03:54.654Z,98509.59
2023-02-26T12:06:27.345Z,98492.06
2023-02-26T12:08:55.224Z,98501.69
2023-02-26T12:11:52.579Z,98494.63
2023-02-26T12:14:45.074Z,98506.00
2023-02-26T12:17:47.740Z,98503.03
2023-02-26T12:20:27.502Z,98506.19
2023-02-26T12:23:33.341Z,98502.41
2023-02-26T12:26:28.302Z,98513.91
2023-02-26T12:29:33.178Z,98525.81
2023-02-26T12:32:21.451Z,98513.97
2023-02-26T12:34:58.086Z,98509.47
2023-02-26T12:37:38.320Z,98523.13
2023-02-26T12:40:48.320Z,98518.06
2023-02-26T12:43:49.510Z,98514.03
2023-02-26T12:46:45.032Z,98517.50
2023-02-26T12:49:35.996Z,98522.59
2023-02-26T12:52:40.920Z,98514.50
2023-02-26T12:55:47.846Z,98510.19
2023-02-26T12:59:11.521Z,98503.16
2023-02-26T13:02:46.160Z,98472.56
2023-02-26T13:05:32.356Z,98482.03
2023-02-26T13:08:21.276Z,98478.28
2023-02-26T13:11:44.687Z,98484.31
2023-02-26T13:14:38.238Z,98472.94
2023-02-26T13:17:55.876Z,98492.34
2023-02-26T13:23:19.651Z,98513.66
2023-02-26T13:26:00.375Z,98518.94
2023-02-26T13:28:45.299Z,98521.59
2023-02-26T13:31:44.490Z,98523.88
2023-02-26T13:34:20.817Z,98522.63
2023-02-26T13:36:52.771Z,98516.50
2023-02-26T13:39:47.406Z,98514.94
2023-02-26T13:42:40.545Z,98522.59
2023-02-26T13:45:31.542Z,98516.94
2023-02-26T13:48:52.768Z,98523.41
2023-02-26T13:51:43.374Z,98539.97
2023-02-26T13:54:19.261Z,98529.19
2023-02-26T13:57:10.082Z,98549.59
2023-02-26T13:59:45.411Z,98559.09
2023-02-26T14:02:35.283Z,98562.50
2023-02-26T14:05:32.111Z,98561.00
2023-02-26T14:08:21.888Z,98551.06
2023-02-26T14:11:04.414Z,98548.28
2023-02-26T14:13:39.987Z,98552.50
2023-02-26T14:16:32.989Z,98554.78
2023-02-26T14:19:16.070Z,98542.25
2023-02-26T14:22:18.599Z,98539.94
2023-02-26T14:25:00.216Z,98537.19
2023-02-26T14:27:50.604Z,98531.84
2023-02-26T14:30:37.311Z,98539.34
2023-02-26T14:33:22.528Z,98542.69
2023-02-26T14:36:43.514Z,98546.41
2023-02-26T14:39:39.320Z,98552.78
2023-02-26T14:42:22.208Z,98554.63
2023-02-26T14:45:17.899Z,98552.75
2023-02-26T14:47:53.537Z,98555.78
2023-02-26T14:50:24.215Z,98533.03
2023-02-26T14:53:20.278Z,98542.50
2023-02-26T14:56:32.977Z,98561.09
2023-02-26T15:06:59.554Z,98561.38
2023-02-26T15:09:48.196Z,98572.94
2023-02-26T15:13:01.346Z,98577.34
2023-02-26T15:15:47.709Z,98569.81
2023-02-26T15:18:37.330Z,98588.84
2023-02-26T15:21:26.430Z,98580.88
2023-02-26T15:24:03.698Z,98577.09
2023-02-26T15:26:38.234Z,98585.44
2023-02-26T15:29:23.404Z,98603.56
2023-02-26T15:32:20.490Z,98608.78
2023-02-26T15:34:59.929Z,98608.78
2023-02-26T15:37:33.698Z,98622.84
2023-02-26T15:40:05.649Z,98623.22
2023-02-26T15:42:39.212Z,98633.09
2023-02-26T15:45:48.567Z,98627.94
2023-02-26T15:48:30.967Z,98640.88
2023-02-26T15:51:06.892Z,98646.81
2023-02-26T15:53:46.763Z,98646.63
2023-02-26T15:56:25.607Z,98656.47
2023-02-26T15:59:26.888Z,98656.34
2023-02-26T16:01:56.522Z,98659.72
2023-02-26T16:04:26.121Z,98664.19
2023-02-26T16:07:03.047Z,98658.91
2023-02-26T16:09:41.053Z,98671.00
2023-02-26T16:12:20.932Z,98682.00
2023-02-26T16:14:59.854Z,98682.78
2023-02-26T16:17:33.588Z,98684.63
2023-02-26T16:20:06.762Z,98675.44
2023-02-26T16:22:44.388Z,98671.25
2023-02-26T16:25:42.039Z,98664.41
2023-02-26T16:28:34.268Z,98677.53
2023-02-26T16:31:13.318Z,98688.97
2023-02-26T16:33:43.053Z,98698.00
2023-02-26T16:36:18.567Z,98683.72
2023-02-26T16:39:03.372Z,98694.25
2023-02-26T16:41:38.743Z,98698.72
2023-02-26T16:44:32.201Z,98707.88
2023-02-26T16:47:05.784Z,98692.72
2023-02-26T16:49:37.543Z,98711.63
2023-02-26T16:52:06.575Z,98723.66
2023-02-26T16:54:42.027Z,98726.75
2023-02-26T16:57:36.281Z,98727.50
2023-02-26T17:00:17.718Z,98725.25
2023-02-26T17:02:49.509Z,98729.81
2023-02-26T17:05:34.046Z,98733.91
2023-02-26T17:08:09.109Z,98735.06
2023-02-26T17:10:48.647Z,98744.00
2023-02-26T17:13:31.941Z,98738.88
2023-02-26T17:16:09.135Z,98749.72
2023-02-26T17:18:38.673Z,98740.31
2023-02-26T17:21:27.016Z,98742.09
2023-02-26T17:23:57.139Z,98750.03
2023-02-26T17:26:25.163Z,98742.19
2023-02-26T17:28:52.847Z,98747.22
2023-02-26T17:31:26.012Z,98749.88
2023-02-26T17:33:55.369Z,98751.34
2023-02-26T17:36:26.648Z,98744.22
2023-02-26T17:39:19.604Z,98746.38
2023-02-26T17:41:47.168Z,98749.84
2023-02-26T17:44:15.091Z,98744.91
2023-02-26T17:46:42.916Z,98750.69
2023-02-26T17:49:17.289Z,98765.06
2023-02-26T17:51:48.915Z,98762.41
2023-02-26T17:54:17.714Z,98756.47
2023-02-26T17:56:45.873Z,98761.38
2023-02-26T17:59:16.434Z,98770.97
2023-02-26T18:01:44.483Z,98761.97
2023-02-26T18:04:13.309Z,98777.41
2023-02-26T18:06:41.278Z,98783.16
2023-02-26T18:09:12.158Z,98778.47
2023-02-26T18:11:40.977Z,98774.53
2023-02-26T18:14:13.554Z,98767.59
2023-02-26T18:16:46.717Z,98767.34
2023-02-26T18:19:15.579Z,98762.63
2023-02-26T18:21:45.947Z,98764.66
2023-02-26T18:24:25.224Z,98764.13
2023-02-26T18:26:53.058Z,98765.47
2023-02-26T18:29:23.041Z,98769.16
2023-02-26T18:31:52.058Z,98768.34
2023-02-26T18:34:20.402Z,98765.88
2023-02-26T18:36:49.402Z,98767.16
2023-02-26T18:39:20.156Z,98772.66
2023-02-26T18:41:48.068Z,98772.81
2023-02-26T18:44:16.863Z,98778.72
2023-02-26T18:46:45.773Z,98778.78
2023-02-26T18:49:41.947Z,98787.69
2023-02-26T18:52:16.123Z,98790.38
2023-02-26T18:54:53.072Z,98787.31
2023-02-26T18:57:25.211Z,98784.59
2023-02-26T18:59:57.296Z,98789.09
2023-02-26T19:02:25.684Z,98782.59
2023-02-26T19:04:54.742Z,98798.19
2023-02-26T19:07:22.676Z,98793.31
2023-02-26T19:09:52.808Z,98810.34
2023-02-26T19:12:27.840Z,98812.59
2023-02-26T19:15:02.344Z,98814.13
2023-02-26T19:17:36.197Z,98817.72
2023-02-26T19:20:10.573Z,98805.25
2023-02-26T19:22:42.600Z,98809.47
2023-02-26T19:25:13.913Z,98816.78
2023-02-26T19:27:42.943Z,98821.88
2023-02-26T19:30:11.889Z,98823.72
2023-02-26T19:32:45.861Z,98818.53
2023-02-26T19:35:14.135Z,98823.75
2023-02-26T19:37:50.765Z,98826.31
2023-02-26T19:40:21.528Z,98819.38
2023-02-26T19:42:51.754Z,98814.13
2023-02-26T19:45:40.475Z,98805.28
2023-02-26T19:48:08.497Z,98806.84
2023-02-26T19:50:37.150Z,98804.19
2023-02-26T19:53:06.604Z,98796.66
2023-02-26T19:55:37.850Z,98797.25
2023-02-26T19:58:07.193Z,98798.94
2023-02-26T20:00:36.786Z,98798.84
2023-02-26T20:03:06.008Z,98803.22
2023-02-26T20:05:40.135Z,98795.28
2023-02-26T20:08:12.083Z,98800.84
2023-02-26T20:10:41.682Z,98797.69
2023-02-26T20:13:11.908Z,98805.44
2023-02-26T20:15:40.844Z,98800.16
2023-02-26T20:18:08.496Z,98802.94
2023-02-26T20:20:37.687Z,98812.16
2023-02-26T20:23:07.569Z,98810.34
2023-02-26T20:25:37.101Z,98825.38
2023-02-26T20:28:07.577Z,98818.34
2023-02-26T20:30:40.099Z,98818.28
2023-02-26T20:33:08.121Z,98811.00
2023-02-26T20:35:41.765Z,98816.88
2023-02-26T20:38:09.390Z,98820.97
2023-02-26T20:40:36.882Z,98820.88
2023-02-26T20:43:05.700Z,98812.97
2023-02-26T20:45:33.931Z,98814.03
2023-02-26T20:48:01.849Z,98810.66
2023-02-26T20:50:30.071Z,98826.97
2023-02-26T20:52:59.417Z,98824.94
2023-02-26T20:55:28.189Z,98807.72
2023-02-26T20:57:55.823Z,98803.22
2023-02-26T21:00:24.427Z,98812.16
2023-02-26T21:02:52.390Z,98804.38
2023-02-26T21:05:23.754Z,98807.13
2023-02-26T21:07:54.160Z,98807.50
2023-02-26T21:10:21.821Z,98820.22
2023-02-26T21:12:51.664Z,98815.34
2023-02-26T21:15:20.300Z,98802.63
2023-02-26T21:17:49.263Z,98806.22
2023-02-26T21:20:18.261Z,98812.44
2023-02-26T21:22:46.946Z,98811.41
2023-02-26T21:25:25.499Z,98816.19
2023-02-26T21:27:57.041Z,98826.56
2023-02-26T21:30:26.424Z,98821.09
2023-02-26T21:33:14.989Z,98797.31
2023-02-26T21:35:45.455Z,98812.88
2023-02-26T21:38:12.902Z,98808.34
2023-02-26T21:40:41.582Z,98806.41
2023-02-26T21:43:10.594Z,98806.91
2023-02-26T21:45:38.960Z,98804.75
2023-02-26T21:48:09.464Z,98797.47
2023-02-26T21:50:39.738Z,98789.66
2023-02-26T21:53:08.279Z,98792.41
2023-02-26T21:55:35.937Z,98809.44
2023-02-26T21:58:03.636Z,98791.00
2023-02-26T22:00:32.401Z,98799.16
2023-02-26T22:02:59.963Z,98793.69
2023-02-26T22:05:27.462Z,98793.75
2023-02-26T22:07:54.990Z,98805.13
2023-02-26T22:10:22.583Z,98806.97
2023-02-26T22:12:50.197Z,98808.56
2023-02-26T22:15:18.233Z,98810.53
2023-02-26T22:17:45.757Z,98812.78
2023-02-26T22:20:14.141Z,98812.25
2023-02-26T22:23:05.193Z,98805.94
2023-02-26T22:25:35.575Z,98807.31
2023-02-26T22:28:04.644Z,98799.81
2023-02-26T22:30:33.628Z,98791.66
2023-02-26T22:33:02.300Z,98785.31
2023-02-26T22:35:29.876Z,98793.22
2023-02-26T22:37:57.477Z,98793.41
2023-02-26T22:40:25.221Z,98791.09
2023-02-26T22:42:52.698Z,98800.81
2023-02-26T22:45:23.032Z,98794.50
2023-02-26T22:47:50.675Z,98802.28
2023-02-26T22:50:19.185Z,98813.06
2023-02-26T22:52:47.737Z,98826.84
2023-02-26T22:55:15.801Z,98819.63
2023-02-26T22:57:43.634Z,98829.59
2023-02-26T23:00:18.956Z,98828.50
2023-02-26T23:02:48.959Z,98826.91
2023-02-26T23:05:17.666Z,98822.06
2023-02-26T23:07:45.171Z,98841.03
2023-02-26T23:10:16.786Z,98845.25
2023-02-26T23:12:45.294Z,98836.06
2023-02-26T23:15:14.538Z,98852.44
2023-02-26T23:17:42.485Z,98840.09
2023-02-26T23:20:13.877Z,98836.00
2023-02-26T23:22:43.858Z,98840.41
2023-02-26T23:25:12.712Z,98831.16
2023-02-26T23:27:40.459Z,98832.38
2023-02-26T23:30:10.992Z,98831.72
2023-02-26T23:32:38.625Z,98824.91
2023-02-26T23:35:07.298Z,98827.81
2023-02-26T23:37:35.312Z,98825.84
2023-02-26T23:40:04.143Z,98823.13
2023-02-26T23:42:31.775Z,98830.91
2023-02-26T23:44:59.224Z,98829.63
2023-02-26T23:47:28.091Z,98822.78
2023-02-26T23:49:55.596Z,98833.53
2023-02-26T23:52:25.753Z,98846.88
2023-02-26T23:54:54.620Z,98836.84
2023-02-26T23:57:22.305Z,98828.03
2023-02-26T23:59:49.790Z,98823.75
